createdAt,value
2018-03-31T00:01:18.937Z,8.20
2018-03-31T00:03:46.061Z,8.20
2018-03-31T00:06:13.078Z,8.20
2018-03-31T00:08:40.095Z,8.20
2018-03-31T00:11:07.121Z,8.20
2018-03-31T00:13:34.148Z,8.20
2018-03-31T00:16:01.193Z,8.20
2018-03-31T00:18:28.202Z,8.20
2018-03-31T00:20:55.205Z,8.20
2018-03-31T00:23:22.211Z,8.30
2018-03-31T00:25:49.231Z,8.20
2018-03-31T00:28:16.364Z,8.20
2018-03-31T00:30:44.168Z,8.20
2018-03-31T00:33:11.184Z,8.20
2018-03-31T00:35:38.971Z,8.20
2018-03-31T00:38:05.988Z,8.20
2018-03-31T00:40:33.112Z,8.30
2018-03-31T00:43:00.121Z,8.30
2018-03-31T00:45:27.892Z,8.30
2018-03-31T00:47:55.664Z,8.30
2018-03-31T00:50:23.433Z,8.30
2018-03-31T00:52:51.228Z,8.30
2018-03-31T00:55:18.237Z,8.30
2018-03-31T00:57:45.364Z,8.30
2018-03-31T01:00:12.387Z,8.30
2018-03-31T01:02:39.435Z,8.30
2018-03-31T01:05:06.451Z,8.20
2018-03-31T01:07:34.229Z,8.20
2018-03-31T01:10:02.032Z,8.20
2018-03-31T01:12:29.045Z,8.10
2018-03-31T01:14:56.827Z,8.10
2018-03-31T01:17:23.844Z,8.00
2018-03-31T01:19:50.853Z,8.10
2018-03-31T01:22:17.904Z,8.00
2018-03-31T01:24:44.914Z,7.90
2018-03-31T01:27:11.921Z,7.90
2018-03-31T01:29:38.930Z,7.90
2018-03-31T01:32:06.705Z,7.90
2018-03-31T01:34:34.501Z,7.90
2018-03-31T01:37:01.514Z,7.90
2018-03-31T01:39:29.296Z,7.90
2018-03-31T01:41:56.304Z,7.80
2018-03-31T01:44:23.329Z,7.80
2018-03-31T01:46:50.352Z,7.70
2018-03-31T01:49:17.389Z,7.70
2018-03-31T01:51:45.180Z,7.70
2018-03-31T01:54:12.217Z,7.60
2018-03-31T01:56:40.001Z,7.60
2018-03-31T01:59:07.016Z,7.60
2018-03-31T02:01:34.041Z,7.60
2018-03-31T02:04:01.076Z,7.60
2018-03-31T02:06:28.131Z,7.60
2018-03-31T02:08:55.114Z,7.60
2018-03-31T02:11:22.146Z,7.60
2018-03-31T02:13:49.151Z,7.60
2018-03-31T02:16:16.924Z,7.50
2018-03-31T02:18:43.933Z,7.50
2018-03-31T02:21:11.064Z,7.50
2018-03-31T02:23:38.085Z,7.40
2018-03-31T02:26:05.091Z,7.40
2018-03-31T02:28:32.116Z,7.40
2018-03-31T02:30:59.132Z,7.30
2018-03-31T02:33:27.012Z,7.30
2018-03-31T02:35:54.041Z,7.30
2018-03-31T02:38:21.853Z,7.30
2018-03-31T02:40:48.869Z,7.30
2018-03-31T02:43:16.659Z,7.30
2018-03-31T02:45:43.670Z,7.30
2018-03-31T02:48:10.686Z,7.30
2018-03-31T02:50:37.732Z,7.30
2018-03-31T02:53:04.751Z,7.30
2018-03-31T02:55:32.530Z,7.30
2018-03-31T02:57:59.552Z,7.30
2018-03-31T03:00:26.573Z,7.30
2018-03-31T03:02:53.581Z,7.30
2018-03-31T03:05:20.594Z,7.20
2018-03-31T03:07:47.614Z,7.20
2018-03-31T03:10:14.648Z,7.20
2018-03-31T03:12:41.687Z,7.30
2018-03-31T03:15:09.495Z,7.30
2018-03-31T03:17:36.509Z,7.30
2018-03-31T03:20:03.519Z,7.30
2018-03-31T03:22:30.547Z,7.40
2018-03-31T03:24:57.694Z,7.40
2018-03-31T03:27:24.709Z,7.40
2018-03-31T03:29:52.497Z,7.40
2018-03-31T03:32:19.506Z,7.40
2018-03-31T03:34:46.513Z,7.40
2018-03-31T03:37:13.637Z,7.40
2018-03-31T03:39:41.413Z,7.40
2018-03-31T03:42:08.437Z,7.40
2018-03-31T03:44:35.445Z,7.50
2018-03-31T03:47:02.453Z,7.40
2018-03-31T03:49:30.236Z,7.50
2018-03-31T03:51:58.018Z,7.50
2018-03-31T03:54:25.147Z,7.60
2018-03-31T03:56:52.945Z,7.60
2018-03-31T03:59:19.973Z,7.60
2018-03-31T04:01:47.749Z,7.70
2018-03-31T04:04:15.526Z,7.70
2018-03-31T04:06:42.529Z,7.60
2018-03-31T04:09:09.553Z,7.70
2018-03-31T04:11:36.690Z,7.70
2018-03-31T04:14:03.705Z,7.80
2018-03-31T04:16:30.705Z,7.80
2018-03-31T04:18:57.716Z,7.80
2018-03-31T04:21:25.498Z,7.80
2018-03-31T04:23:53.288Z,7.90
2018-03-31T04:26:20.301Z,7.90
2018-03-31T04:28:47.429Z,7.90
2018-03-31T04:31:14.454Z,7.90
2018-03-31T04:33:41.456Z,7.90
2018-03-31T04:36:08.459Z,7.90
2018-03-31T04:38:35.500Z,7.90
2018-03-31T04:41:02.635Z,8.00
2018-03-31T04:43:30.407Z,8.00
2018-03-31T04:45:57.418Z,8.00
2018-03-31T04:48:24.495Z,8.00
2018-03-31T04:50:51.473Z,8.00
2018-03-31T04:53:18.488Z,8.00
2018-03-31T04:55:45.526Z,8.00
2018-03-31T04:58:12.633Z,8.10
2018-03-31T05:00:40.372Z,8.10
2018-03-31T05:03:08.152Z,8.10
2018-03-31T05:05:35.207Z,8.10
2018-03-31T05:08:02.240Z,8.10
2018-03-31T05:10:30.035Z,8.20
2018-03-31T05:12:57.052Z,8.20
2018-03-31T05:15:24.076Z,8.20
2018-03-31T05:17:51.113Z,8.20
2018-03-31T05:20:18.134Z,8.20
2018-03-31T05:22:45.942Z,8.30
2018-03-31T05:25:12.982Z,8.20
2018-03-31T05:27:39.984Z,8.20
2018-03-31T05:30:07.027Z,8.30
2018-03-31T05:32:34.036Z,8.30
2018-03-31T05:35:01.087Z,8.30
2018-03-31T05:37:28.106Z,8.30
2018-03-31T05:39:55.884Z,8.30
2018-03-31T05:42:22.901Z,8.30
2018-03-31T05:44:49.925Z,8.30
2018-03-31T05:47:16.970Z,8.30
2018-03-31T05:49:44.080Z,8.40
2018-03-31T05:52:11.048Z,8.40
2018-03-31T05:54:38.081Z,8.40
2018-03-31T05:57:05.869Z,8.40
2018-03-31T05:59:33.028Z,8.40
2018-03-31T06:02:00.050Z,8.40
2018-03-31T06:04:27.840Z,8.40
2018-03-31T06:06:55.627Z,8.40
2018-03-31T06:09:22.705Z,8.40
2018-03-31T06:11:49.901Z,8.40
2018-03-31T06:14:17.704Z,8.40
2018-03-31T06:16:44.739Z,8.40
2018-03-31T06:19:12.518Z,8.40
2018-03-31T06:21:39.590Z,8.40
2018-03-31T06:24:06.649Z,8.40
2018-03-31T06:26:33.674Z,8.40
2018-03-31T06:29:00.681Z,8.50
2018-03-31T06:31:28.467Z,8.60
2018-03-31T06:33:55.525Z,8.50
2018-03-31T06:36:23.328Z,8.60
2018-03-31T06:38:50.355Z,8.60
2018-03-31T06:41:18.133Z,8.60
2018-03-31T06:43:45.145Z,8.60
2018-03-31T06:46:12.187Z,8.70
2018-03-31T06:48:39.334Z,8.70
2018-03-31T06:51:06.383Z,8.70
2018-03-31T06:53:33.398Z,8.70
2018-03-31T06:56:00.407Z,8.70
2018-03-31T06:58:27.424Z,8.70
2018-03-31T07:00:54.453Z,8.70
2018-03-31T07:03:21.495Z,8.70
2018-03-31T07:05:49.318Z,8.80
2018-03-31T07:08:16.337Z,8.80
2018-03-31T07:10:43.387Z,8.80
2018-03-31T07:13:10.422Z,8.80
2018-03-31T07:15:38.211Z,8.80
2018-03-31T07:18:05.374Z,8.80
2018-03-31T07:20:32.409Z,8.80
2018-03-31T07:22:59.438Z,8.80
2018-03-31T07:25:27.266Z,8.80
2018-03-31T07:27:54.327Z,8.80
2018-03-31T07:30:21.463Z,8.90
2018-03-31T07:32:48.499Z,8.90
2018-03-31T07:35:15.520Z,8.90
2018-03-31T07:37:43.301Z,8.90
2018-03-31T07:40:11.085Z,9.00
2018-03-31T07:42:38.119Z,8.90
2018-03-31T07:45:05.912Z,8.90
2018-03-31T07:47:32.961Z,8.90
2018-03-31T07:50:00.010Z,9.00
2018-03-31T07:52:27.039Z,9.00
2018-03-31T07:54:54.833Z,9.00
2018-03-31T07:57:21.853Z,9.00
2018-03-31T07:59:49.639Z,9.00
2018-03-31T08:02:17.445Z,9.00
2018-03-31T08:04:44.494Z,9.00
2018-03-31T08:07:11.513Z,9.10
2018-03-31T08:09:39.309Z,9.10
2018-03-31T08:12:06.320Z,9.10
2018-03-31T08:14:34.108Z,9.20
2018-03-31T08:17:01.179Z,9.20
2018-03-31T08:19:28.215Z,9.30
2018-03-31T08:21:55.248Z,9.30
2018-03-31T08:24:23.024Z,9.40
2018-03-31T08:26:50.842Z,9.50
2018-03-31T08:29:17.865Z,9.50
2018-03-31T08:31:44.889Z,9.60
2018-03-31T08:34:12.716Z,9.70
2018-03-31T08:36:39.735Z,9.70
2018-03-31T08:39:06.784Z,9.80
2018-03-31T08:41:33.808Z,10.00
2018-03-31T08:44:01.600Z,10.30
2018-03-31T08:46:28.805Z,10.20
2018-03-31T08:48:55.814Z,10.40
2018-03-31T08:51:22.830Z,10.60
2018-03-31T08:53:49.867Z,10.90
2018-03-31T08:56:16.930Z,11.10
2018-03-31T08:58:44.081Z,11.30
2018-03-31T09:01:11.150Z,11.50
2018-03-31T09:03:38.944Z,11.70
2018-03-31T09:06:05.953Z,11.70
2018-03-31T09:08:32.974Z,11.70
2018-03-31T09:11:00.116Z,11.70
2018-03-31T09:13:27.136Z,11.80
2018-03-31T09:15:54.988Z,11.90
2018-03-31T09:18:21.973Z,11.90
2018-03-31T09:20:48.998Z,12.00
2018-03-31T09:23:16.084Z,12.00
2018-03-31T09:25:43.107Z,11.90
2018-03-31T09:28:10.159Z,11.90
2018-03-31T09:30:37.181Z,11.90
2018-03-31T09:33:04.215Z,11.90
2018-03-31T09:35:31.361Z,11.90
2018-03-31T09:37:58.402Z,11.90
2018-03-31T09:40:25.436Z,11.90
2018-03-31T09:42:53.231Z,11.90
2018-03-31T09:45:20.257Z,11.80
2018-03-31T09:47:48.174Z,11.80
2018-03-31T09:50:15.198Z,11.80
2018-03-31T09:52:42.228Z,11.80
2018-03-31T09:55:10.013Z,12.00
2018-03-31T09:57:37.074Z,12.00
2018-03-31T10:00:04.095Z,12.10
2018-03-31T10:02:31.887Z,12.30
2018-03-31T10:04:58.940Z,12.30
2018-03-31T10:07:25.977Z,12.30
2018-03-31T10:09:53.762Z,12.30
2018-03-31T10:12:20.808Z,12.30
2018-03-31T10:14:47.846Z,12.30
2018-03-31T10:17:15.644Z,12.30
2018-03-31T10:19:42.699Z,12.20
2018-03-31T10:22:09.731Z,12.20
2018-03-31T10:24:37.530Z,12.20
2018-03-31T10:27:04.552Z,12.20
2018-03-31T10:29:32.337Z,12.30
2018-03-31T10:31:59.356Z,12.20
2018-03-31T10:34:27.261Z,12.40
2018-03-31T10:36:54.295Z,12.30
2018-03-31T10:39:21.314Z,12.40
2018-03-31T10:41:48.344Z,12.40
2018-03-31T10:44:15.373Z,12.40
2018-03-31T10:46:42.424Z,12.40
2018-03-31T10:49:09.465Z,12.40
2018-03-31T10:51:36.488Z,12.50
2018-03-31T10:54:03.517Z,12.70
2018-03-31T10:56:30.541Z,12.90
2018-03-31T10:58:57.597Z,13.10
2018-03-31T11:01:24.664Z,13.30
2018-03-31T11:03:51.690Z,13.40
2018-03-31T11:06:18.715Z,13.40
2018-03-31T11:08:46.504Z,13.40
2018-03-31T11:11:13.535Z,13.40
2018-03-31T11:13:41.329Z,13.20
2018-03-31T11:16:08.382Z,13.20
2018-03-31T11:18:35.418Z,13.20
2018-03-31T11:21:03.217Z,13.10
2018-03-31T11:23:30.232Z,13.10
2018-03-31T11:25:58.057Z,13.20
2018-03-31T11:28:25.082Z,13.20
2018-03-31T11:30:52.109Z,13.30
2018-03-31T11:33:19.923Z,13.50
2018-03-31T11:35:46.954Z,13.50
2018-03-31T11:38:14.054Z,13.50
2018-03-31T11:40:41.116Z,13.60
2018-03-31T11:43:08.172Z,13.60
2018-03-31T11:45:35.987Z,13.70
2018-03-31T11:48:03.013Z,13.70
2018-03-31T11:50:30.114Z,13.70
2018-03-31T11:52:57.127Z,13.80
2018-03-31T11:55:24.180Z,13.80
2018-03-31T11:57:51.211Z,13.80
2018-03-31T12:00:18.249Z,13.80
2018-03-31T12:02:45.269Z,13.70
2018-03-31T12:05:12.297Z,13.70
2018-03-31T12:07:39.453Z,13.60
2018-03-31T12:10:06.483Z,13.60
2018-03-31T12:12:34.285Z,13.70
2018-03-31T12:15:01.301Z,13.60
2018-03-31T12:17:29.191Z,13.70
2018-03-31T12:19:56.239Z,13.70
2018-03-31T12:22:23.260Z,13.70
2018-03-31T12:24:51.067Z,13.70
2018-03-31T12:27:18.098Z,13.70
2018-03-31T12:29:45.912Z,13.70
2018-03-31T12:32:12.954Z,13.70
2018-03-31T12:34:40.022Z,13.70
2018-03-31T12:37:07.083Z,13.70
2018-03-31T12:39:34.115Z,13.70
2018-03-31T12:42:01.204Z,13.70
2018-03-31T12:44:28.223Z,13.80
2018-03-31T12:46:55.253Z,13.80
2018-03-31T12:49:22.319Z,13.90
2018-03-31T12:51:49.360Z,14.00
2018-03-31T12:54:16.398Z,14.10
2018-03-31T12:56:43.435Z,14.20
2018-03-31T12:59:11.218Z,14.30
2018-03-31T13:01:39.154Z,14.40
2018-03-31T13:04:06.181Z,14.30
2018-03-31T13:06:33.285Z,14.40
2018-03-31T13:09:01.074Z,14.40
2018-03-31T13:11:28.172Z,14.40
2018-03-31T13:13:55.264Z,14.40
2018-03-31T13:16:23.053Z,14.50
2018-03-31T13:18:50.086Z,14.50
2018-03-31T13:21:17.864Z,14.60
2018-03-31T13:23:44.919Z,14.60
2018-03-31T13:26:11.977Z,14.60
2018-03-31T13:28:39.067Z,14.60
2018-03-31T13:31:06.084Z,14.70
2018-03-31T13:33:33.113Z,14.70
2018-03-31T13:36:01.037Z,14.70
2018-03-31T13:38:28.075Z,14.60
2018-03-31T13:40:55.178Z,14.60
2018-03-31T13:43:22.494Z,14.60
2018-03-31T13:45:49.989Z,14.60
2018-03-31T13:48:17.069Z,14.50
2018-03-31T13:50:44.858Z,14.50
2018-03-31T13:53:11.898Z,14.50
2018-03-31T13:55:39.335Z,14.50
2018-03-31T13:58:06.680Z,14.40
2018-03-31T14:00:35.399Z,14.30
2018-03-31T14:03:04.467Z,14.30
2018-03-31T14:05:31.623Z,14.30
2018-03-31T14:07:58.696Z,14.30
2018-03-31T14:10:26.490Z,14.20
2018-03-31T14:12:54.404Z,14.20
2018-03-31T14:15:21.432Z,14.20
2018-03-31T14:17:48.703Z,14.10
2018-03-31T14:20:15.777Z,14.10
2018-03-31T14:22:43.279Z,14.10
2018-03-31T14:25:10.560Z,14.10
2018-03-31T14:27:37.632Z,14.10
2018-03-31T14:30:05.118Z,14.10
2018-03-31T14:32:32.939Z,14.00
2018-03-31T14:34:59.962Z,14.00
2018-03-31T14:37:27.768Z,14.00
2018-03-31T14:39:54.839Z,13.90
2018-03-31T14:42:21.924Z,13.90
2018-03-31T14:44:49.813Z,13.90
2018-03-31T14:47:18.072Z,13.80
2018-03-31T14:49:45.504Z,13.80
2018-03-31T14:52:13.673Z,13.70
2018-03-31T14:54:41.161Z,13.70
2018-03-31T14:57:09.014Z,13.60
2018-03-31T14:59:36.159Z,13.60
2018-03-31T15:02:03.274Z,13.50
2018-03-31T15:04:31.125Z,13.20
2018-03-31T15:06:58.227Z,13.20
2018-03-31T15:09:25.698Z,13.10
2018-03-31T15:11:52.766Z,13.00
2018-03-31T15:14:19.825Z,12.80
2018-03-31T15:16:46.973Z,12.70
2018-03-31T15:19:14.068Z,12.60
2018-03-31T15:21:41.987Z,12.40
2018-03-31T15:24:09.079Z,12.40
2018-03-31T15:26:36.133Z,12.40
2018-03-31T15:29:03.345Z,12.30
2018-03-31T15:31:30.455Z,12.20
2018-03-31T15:33:58.278Z,12.20
2018-03-31T15:36:25.349Z,12.10
2018-03-31T15:38:52.419Z,12.10
2018-03-31T15:41:20.457Z,12.00
2018-03-31T15:43:47.570Z,12.00
2018-03-31T15:46:15.368Z,11.90
2018-03-31T15:48:42.446Z,11.90
2018-03-31T15:51:09.676Z,11.90
2018-03-31T15:53:36.700Z,11.80
2018-03-31T15:56:04.522Z,11.80
2018-03-31T15:58:31.580Z,11.80
2018-03-31T16:00:59.457Z,11.80
2018-03-31T16:03:26.511Z,11.70
2018-03-31T16:05:53.581Z,11.80
2018-03-31T16:08:20.629Z,11.70
2018-03-31T16:10:47.668Z,11.60
2018-03-31T16:13:14.713Z,11.70
2018-03-31T16:15:41.751Z,11.60
2018-03-31T16:18:08.782Z,11.60
2018-03-31T16:20:35.849Z,11.60
2018-03-31T16:23:02.883Z,11.60
2018-03-31T16:25:29.957Z,11.60
2018-03-31T16:27:57.072Z,11.70
2018-03-31T16:30:24.859Z,11.70
2018-03-31T16:32:52.023Z,11.60
2018-03-31T16:35:19.038Z,11.70
2018-03-31T16:37:46.903Z,11.80
2018-03-31T16:40:14.006Z,11.80
2018-03-31T16:42:41.003Z,11.80
2018-03-31T16:45:08.072Z,11.80
2018-03-31T16:47:35.112Z,11.90
2018-03-31T16:50:02.937Z,12.00
2018-03-31T16:52:29.977Z,11.90
2018-03-31T16:54:57.036Z,12.00
2018-03-31T16:57:24.078Z,12.00
2018-03-31T16:59:51.135Z,11.90
2018-03-31T17:02:18.255Z,12.00
2018-03-31T17:04:46.099Z,11.90
2018-03-31T17:07:13.183Z,11.90
2018-03-31T17:09:40.240Z,11.90
2018-03-31T17:12:08.085Z,11.90
2018-03-31T17:14:35.170Z,11.90
2018-03-31T17:17:02.207Z,11.90
2018-03-31T17:19:30.025Z,11.90
2018-03-31T17:21:57.873Z,11.90
2018-03-31T17:24:25.893Z,11.90
2018-03-31T17:26:52.965Z,11.90
2018-03-31T17:29:20.798Z,11.80
2018-03-31T17:31:47.916Z,11.80
2018-03-31T17:34:14.961Z,11.80
2018-03-31T17:36:42.882Z,11.80
2018-03-31T17:39:09.943Z,11.80
2018-03-31T17:41:36.990Z,11.80
2018-03-31T17:44:04.077Z,11.80
2018-03-31T17:46:31.909Z,11.80
2018-03-31T17:48:59.002Z,11.80
2018-03-31T17:51:26.831Z,11.80
2018-03-31T17:53:53.916Z,11.80
2018-03-31T17:56:21.740Z,11.80
2018-03-31T17:58:48.798Z,11.80
2018-03-31T18:01:15.945Z,11.80
2018-03-31T18:03:42.974Z,11.80
2018-03-31T18:06:10.032Z,11.70
2018-03-31T18:08:37.072Z,11.70
2018-03-31T18:11:04.120Z,11.70
2018-03-31T18:13:32.049Z,11.70
2018-03-31T18:15:59.280Z,11.70
2018-03-31T18:18:26.348Z,11.70
2018-03-31T18:20:53.385Z,11.70
2018-03-31T18:23:20.418Z,11.70
2018-03-31T18:25:47.667Z,11.70
2018-03-31T18:28:14.765Z,11.70
2018-03-31T18:30:41.769Z,11.60
2018-03-31T18:33:09.630Z,11.60
2018-03-31T18:35:37.420Z,11.60
2018-03-31T18:38:04.486Z,11.50
2018-03-31T18:40:31.637Z,11.50
2018-03-31T18:42:58.790Z,11.50
2018-03-31T18:45:25.852Z,11.50
2018-03-31T18:47:52.912Z,11.40
2018-03-31T18:50:20.054Z,11.40
2018-03-31T18:52:47.160Z,11.40
2018-03-31T18:55:14.555Z,11.40
2018-03-31T18:57:41.738Z,11.40
2018-03-31T19:00:08.827Z,11.30
2018-03-31T19:02:35.899Z,11.30
2018-03-31T19:05:03.755Z,11.30
2018-03-31T19:07:31.718Z,11.30
2018-03-31T19:09:58.792Z,11.20
2018-03-31T19:12:26.613Z,11.30
2018-03-31T19:14:53.645Z,11.30
2018-03-31T19:17:20.677Z,11.20
2018-03-31T19:19:48.510Z,11.20
2018-03-31T19:22:15.606Z,11.10
2018-03-31T19:24:48.362Z,11.10
2018-03-31T19:27:15.406Z,11.10
2018-03-31T19:29:42.460Z,11.00
2018-03-31T19:32:09.519Z,11.00
2018-03-31T19:34:36.589Z,10.90
2018-03-31T19:37:04.423Z,10.90
2018-03-31T19:39:37.794Z,10.80
2018-03-31T19:42:04.880Z,10.80
2018-03-31T19:44:31.917Z,10.80
2018-03-31T19:46:59.012Z,10.80
2018-03-31T19:49:26.875Z,10.70
2018-03-31T19:51:54.682Z,10.70
2018-03-31T19:54:21.729Z,10.70
2018-03-31T19:56:48.774Z,10.70
2018-03-31T20:01:50.070Z,10.70
2018-03-31T20:04:17.159Z,10.70
2018-03-31T20:06:44.230Z,10.60
2018-03-31T20:09:12.070Z,10.60
2018-03-31T20:11:39.110Z,10.60
2018-03-31T20:14:06.298Z,10.60
2018-03-31T20:16:34.358Z,10.50
2018-03-31T20:19:01.469Z,10.50
2018-03-31T20:21:29.046Z,10.40
2018-03-31T20:23:56.110Z,10.40
2018-03-31T20:26:23.367Z,10.30
2018-03-31T20:28:50.462Z,10.20
2018-03-31T20:31:18.369Z,10.10
2018-03-31T20:33:45.729Z,10.10
2018-03-31T20:36:12.822Z,10.10
2018-03-31T20:38:40.458Z,10.00
2018-03-31T20:41:07.554Z,10.00
2018-03-31T20:43:34.676Z,9.90
2018-03-31T20:46:01.860Z,9.90
2018-03-31T20:48:28.934Z,9.80
2018-03-31T20:50:57.492Z,9.80
2018-03-31T20:53:24.518Z,9.70
2018-03-31T20:55:51.672Z,9.70
2018-03-31T20:58:18.732Z,9.70
2018-03-31T21:00:45.777Z,9.60
2018-03-31T21:03:12.850Z,9.60
2018-03-31T21:05:39.986Z,9.60
2018-03-31T21:08:07.001Z,9.60
2018-03-31T21:10:34.103Z,9.50
2018-03-31T21:13:01.224Z,9.50
2018-03-31T21:15:28.245Z,9.50
2018-03-31T21:17:56.079Z,9.50
2018-03-31T21:20:23.139Z,9.40
2018-03-31T21:22:50.183Z,9.50
2018-03-31T21:25:17.424Z,9.40
2018-03-31T21:27:44.463Z,9.40
2018-03-31T21:30:11.488Z,9.40
2018-03-31T21:32:39.358Z,9.30
2018-03-31T21:35:07.171Z,9.30
2018-03-31T21:37:34.319Z,9.30
2018-03-31T21:40:01.366Z,9.30
2018-03-31T21:42:28.406Z,9.30
2018-03-31T21:44:55.448Z,9.30
2018-03-31T21:47:22.478Z,9.30
2018-03-31T21:49:50.332Z,9.20
2018-03-31T21:52:17.496Z,9.20
2018-03-31T21:54:45.331Z,9.20
2018-03-31T21:57:13.140Z,9.20
2018-03-31T21:59:40.273Z,9.20
2018-03-31T22:02:08.100Z,9.20
2018-03-31T22:04:35.184Z,9.20
2018-03-31T22:07:02.244Z,9.20
2018-03-31T22:09:29.257Z,9.20
2018-03-31T22:11:56.322Z,9.20
2018-03-31T22:14:29.000Z,9.20
2018-03-31T22:16:56.030Z,9.10
2018-03-31T22:19:23.084Z,9.10
2018-03-31T22:21:50.125Z,9.10
2018-03-31T22:24:17.961Z,9.00
2018-03-31T22:26:45.004Z,9.00
2018-03-31T22:29:12.052Z,9.00
2018-03-31T22:31:39.093Z,9.10
2018-03-31T22:34:06.155Z,9.00
2018-03-31T22:36:33.180Z,8.90
2018-03-31T22:39:00.221Z,9.00
2018-03-31T22:41:27.233Z,8.90
2018-03-31T22:43:54.253Z,8.90
2018-03-31T22:46:21.285Z,8.90
2018-03-31T22:48:48.360Z,8.90
2018-03-31T22:51:15.562Z,8.80
2018-03-31T22:53:43.373Z,8.70
2018-03-31T22:56:10.412Z,8.70
2018-03-31T22:58:37.533Z,8.80
2018-03-31T23:01:04.619Z,8.80
2018-03-31T23:03:31.744Z,8.80
2018-03-31T23:05:59.808Z,8.80
2018-03-31T23:08:26.885Z,8.80
2018-03-31T23:10:54.807Z,8.90
2018-03-31T23:13:21.987Z,8.80
2018-03-31T23:15:49.055Z,8.80
2018-03-31T23:18:16.891Z,8.80
2018-03-31T23:20:44.780Z,8.80
2018-03-31T23:23:11.939Z,8.80
2018-03-31T23:25:38.983Z,8.80
2018-03-31T23:28:06.051Z,8.80
2018-03-31T23:30:33.084Z,8.80
2018-03-31T23:33:00.108Z,8.90
2018-03-31T23:35:27.119Z,8.90
2018-03-31T23:37:54.933Z,8.90
2018-03-31T23:40:21.958Z,8.90
2018-03-31T23:42:48.991Z,9.00
2018-03-31T23:45:16.817Z,9.00
2018-03-31T23:47:43.856Z,9.00
2018-03-31T23:50:10.920Z,9.10
2018-03-31T23:52:37.932Z,9.10
2018-03-31T23:55:04.946Z,9.10
2018-03-31T23:57:32.781Z,9.10
2018-03-31T23:59:59.954Z,9.10
